Time;durP1;ratioP1;P1;durP2;ratioP2;P2;SDS_P1;SDS_P2;PMS_P1;PMS_P2;Temp;Humidity;BMP_temperature;BMP_pressure;BME280_temperature;BME280_humidity;BME280_pressure;Samples;Min_cycle;Max_cycle;Signal;HPM_P1;HPM_P2
2024/02/06 00:01:37;;;;;;;1.80;1.38;;;;;;;13.57;44.89;98871.69;5018199;28;20124;-79
2024/02/06 00:04:02;;;;;;;3.08;2.00;;;;;;;13.53;44.89;98873.72;5050970;28;20468;-79
2024/02/06 00:06:28;;;;;;;3.75;1.90;;;;;;;13.53;44.92;98867.66;5017599;28;20116;-78
2024/02/06 00:08:53;;;;;;;5.20;2.00;;;;;;;13.53;45.03;98868.47;5050893;28;20499;-79
2024/02/06 00:11:19;;;;;;;2.72;1.70;;;;;;;13.51;44.68;98862.53;5034015;28;20032;-79
2024/02/06 00:13:45;;;;;;;3.40;2.08;;;;;;;13.50;44.84;98863.50;5033827;28;20038;-79
2024/02/06 00:16:14;;;;;;;3.22;1.98;;;;;;;13.47;44.69;98850.69;5017646;28;20098;-79
2024/02/06 00:18:41;;;;;;;3.15;1.73;;;;;;;13.50;44.63;98863.50;5034726;28;20108;-79
2024/02/06 00:21:06;;;;;;;3.88;2.08;;;;;;;13.48;44.67;98868.06;5050687;28;20457;-80
2024/02/06 00:23:32;;;;;;;2.78;1.90;;;;;;;13.47;44.83;98878.69;5033903;28;20029;-78
2024/02/06 00:25:57;;;;;;;2.95;1.98;;;;;;;13.44;44.77;98874.53;5034022;28;20025;-79
2024/02/06 00:28:23;;;;;;;3.83;2.03;;;;;;;13.45;44.76;98870.94;5034036;28;20087;-77
2024/02/06 00:30:49;;;;;;;4.32;2.45;;;;;;;13.44;44.64;98877.16;5050398;28;20041;-78
2024/02/06 00:33:14;;;;;;;3.15;1.90;;;;;;;13.39;44.83;98876.72;5033499;28;20036;-79
2024/02/06 00:35:40;;;;;;;4.32;2.03;;;;;;;13.43;44.48;98877.28;5017254;28;20029;-78
2024/02/06 00:38:05;;;;;;;3.28;2.08;;;;;;;13.38;44.68;98881.13;5050482;28;20037;-79
2024/02/06 00:40:31;;;;;;;3.58;2.10;;;;;;;13.39;44.44;98877.56;5017141;28;20480;-78
2024/02/06 00:42:56;;;;;;;3.53;2.00;;;;;;;13.39;44.52;98876.72;5016888;28;20063;-78
2024/02/06 00:45:22;;;;;;;5.13;2.50;;;;;;;13.38;44.65;98881.13;5033135;28;20032;-80
2024/02/06 00:47:49;;;;;;;3.67;2.22;;;;;;;13.32;44.66;98873.75;5033930;28;20036;-80
2024/02/06 00:50:16;;;;;;;3.63;2.30;;;;;;;13.33;44.63;98882.47;5034594;28;20033;-78
2024/02/06 00:52:41;;;;;;;3.83;2.35;;;;;;;13.37;44.62;98891.75;5037405;28;20078;-78
2024/02/06 00:55:07;;;;;;;3.28;2.20;;;;;;;13.36;44.52;98883.06;5036270;28;20100;-79
2024/02/06 00:57:32;;;;;;;3.42;2.13;;;;;;;13.32;44.56;98878.19;5036502;28;20129;-79
2024/02/06 00:59:58;;;;;;;3.80;2.40;;;;;;;13.36;44.33;98884.84;5021326;28;20037;-78
2024/02/06 01:02:25;;;;;;;3.97;2.20;;;;;;;13.31;44.33;98890.44;5053434;28;20059;-78
2024/02/06 01:04:51;;;;;;;4.05;2.58;;;;;;;13.32;44.24;98881.63;5037234;28;20043;-78
2024/02/06 01:07:18;;;;;;;5.07;2.40;;;;;;;13.34;44.20;98895.44;5037017;28;20441;-77
2024/02/06 01:09:44;;;;;;;4.10;2.53;;;;;;;13.34;44.46;98897.25;5037231;28;20025;-79
2024/02/06 01:12:10;;;;;;;3.80;2.47;;;;;;;13.26;44.25;98878.69;5020280;28;20033;-77
2024/02/06 01:14:36;;;;;;;4.03;2.40;;;;;;;13.29;44.20;98888.91;5036901;28;20117;-79
2024/02/06 01:17:02;;;;;;;3.88;2.20;;;;;;;13.32;44.23;98896.53;5037138;28;20237;-78
2024/02/06 01:19:28;;;;;;;4.20;2.60;;;;;;;13.30;44.36;98894.03;5036704;28;20025;-77
2024/02/06 01:21:53;;;;;;;4.15;2.70;;;;;;;13.26;44.05;98887.38;5036945;28;20044;-78
2024/02/06 01:24:19;;;;;;;4.80;2.35;;;;;;;13.24;44.28;98889.31;5036591;28;20408;-77
2024/02/06 01:26:44;;;;;;;3.78;2.45;;;;;;;13.28;44.25;98882.00;5036331;28;20029;-79
2024/02/06 01:29:10;;;;;;;4.18;2.35;;;;;;;13.26;44.30;98889.19;5036414;28;20357;-78
2024/02/06 01:31:35;;;;;;;3.90;2.55;;;;;;;13.22;44.26;98896.47;5053046;28;20400;-78
2024/02/06 01:34:01;;;;;;;4.45;2.80;;;;;;;13.21;44.33;98902.69;5036433;28;20075;-78
2024/02/06 01:36:26;;;;;;;3.15;2.25;;;;;;;13.21;44.21;98898.25;5036325;28;20037;-79
2024/02/06 01:38:52;;;;;;;4.50;2.50;;;;;;;13.17;44.37;98898.66;5053283;28;20384;-80
2024/02/06 01:41:17;;;;;;;3.80;2.53;;;;;;;13.18;44.34;98892.44;5035938;28;20036;-79
2024/02/06 01:43:43;;;;;;;3.90;2.70;;;;;;;13.16;44.37;98886.50;5036071;28;20053;-78
2024/02/06 01:46:08;;;;;;;4.53;2.40;;;;;;;13.10;44.30;98879.16;5052987;28;20025;-78
2024/02/06 01:48:34;;;;;;;3.88;2.38;;;;;;;13.12;44.36;98891.16;5053260;28;20037;-78
2024/02/06 01:51:00;;;;;;;3.88;2.63;;;;;;;13.11;44.14;98897.38;5019955;28;20036;-78
2024/02/06 01:53:26;;;;;;;6.30;2.60;;;;;;;13.09;44.25;98890.59;5036148;28;20033;-79
2024/02/06 01:55:51;;;;;;;5.68;2.88;;;;;;;13.08;44.44;98904.66;5036857;28;20029;-79
2024/02/06 01:58:17;;;;;;;3.85;2.53;;;;;;;13.06;44.26;98910.03;5019387;28;20125;-78
2024/02/06 02:00:42;;;;;;;4.97;2.60;;;;;;;13.04;44.19;98856.91;5035974;28;20025;-79
2024/02/06 02:03:08;;;;;;;4.50;2.70;;;;;;;12.99;44.17;98888.75;5019357;28;20037;-79
2024/02/06 02:05:33;;;;;;;5.60;3.15;;;;;;;13.00;44.15;98893.03;5052698;28;20036;-78
2024/02/06 02:07:59;;;;;;;7.28;3.05;;;;;;;13.00;44.40;98886.97;5035750;28;20037;-78
2024/02/06 02:10:24;;;;;;;4.18;2.70;;;;;;;12.98;44.47;98902.84;5035998;28;20051;-79
2024/02/06 02:12:50;;;;;;;4.35;2.72;;;;;;;12.96;44.74;98896.88;5035918;28;20040;-78
2024/02/06 02:15:16;;;;;;;4.20;2.92;;;;;;;12.90;44.55;98904.41;5019288;28;20028;-79
2024/02/06 02:17:42;;;;;;;6.60;2.97;;;;;;;12.92;44.38;98921.69;5019718;28;20128;-77
2024/02/06 02:20:08;;;;;;;5.95;3.05;;;;;;;12.85;44.52;98895.13;5018984;28;20083;-76
2024/02/06 02:22:34;;;;;;;3.85;2.65;;;;;;;12.87;44.46;98902.06;5035953;28;20033;-79
2024/02/06 02:24:59;;;;;;;4.30;2.90;;;;;;;12.86;44.36;98909.09;5035400;28;20029;-78
2024/02/06 02:27:25;;;;;;;4.90;2.97;;;;;;;12.78;44.68;98914.97;5018865;28;20048;-78
2024/02/06 02:29:51;;;;;;;5.20;3.20;;;;;;;12.79;44.70;98921.88;5018852;28;20385;-78
2024/02/06 02:32:17;;;;;;;5.13;3.15;;;;;;;12.77;44.75;98925.56;5035591;28;20040;-77
2024/02/06 02:34:48;;;;;;;6.43;3.08;;;;;;;12.76;45.09;98929.13;5018760;28;20036;-78
2024/02/06 02:37:14;;;;;;;4.70;3.15;;;;;;;12.72;44.62;98928.56;5051606;28;20029;-77
2024/02/06 02:39:40;;;;;;;5.90;2.85;;;;;;;12.65;44.92;98930.00;5035263;28;20503;-78
2024/02/06 02:42:06;;;;;;;4.13;3.00;;;;;;;12.65;45.23;98943.09;5035180;28;20040;-79
2024/02/06 02:44:31;;;;;;;4.15;2.83;;;;;;;12.57;45.11;98942.91;5052314;28;20438;-79
2024/02/06 02:46:57;;;;;;;7.38;2.85;;;;;;;12.54;45.37;98962.31;5033639;28;20041;-79
2024/02/06 02:49:22;;;;;;;4.78;3.08;;;;;;;12.57;44.98;98971.69;5033890;28;20467;-81
2024/02/06 02:51:50;;;;;;;5.55;2.90;;;;;;;12.50;45.37;98963.50;5050451;28;20124;-79
2024/02/06 02:54:16;;;;;;;6.25;2.80;;;;;;;12.50;45.33;98960.91;5018315;28;20467;-80
2024/02/06 02:56:41;;;;;;;4.63;2.88;;;;;;;12.47;45.41;98958.53;5035059;28;20033;-81
2024/02/06 02:59:07;;;;;;;5.55;3.08;;;;;;;12.38;45.55;98944.41;5034884;28;20056;-77
2024/02/06 03:01:32;;;;;;;3.47;2.58;;;;;;;12.35;45.53;98931.56;5034701;28;20052;-79
2024/02/06 03:03:58;;;;;;;4.65;2.88;;;;;;;12.33;45.38;98948.34;5017926;28;20041;-77
2024/02/06 03:06:23;;;;;;;3.97;2.58;;;;;;;12.30;45.50;98950.25;5018141;28;20041;-80
2024/02/06 03:08:49;;;;;;;3.65;2.63;;;;;;;12.33;45.28;98967.47;5050065;28;20025;-78
2024/02/06 03:11:14;;;;;;;5.47;2.88;;;;;;;12.31;45.49;98974.63;5050827;28;20068;-79
2024/02/06 03:13:44;;;;;;;5.30;2.90;;;;;;;12.29;45.62;98971.31;5018609;28;20056;-79
2024/02/06 03:16:09;;;;;;;4.75;2.67;;;;;;;12.23;45.86;98956.91;5051578;28;20059;-78
2024/02/06 03:18:35;;;;;;;4.85;2.75;;;;;;;12.22;45.66;98964.88;5034198;28;20496;-77
2024/02/06 03:21:01;;;;;;;5.90;3.20;;;;;;;12.25;45.64;98965.47;5034646;28;20492;-78
2024/02/06 03:23:26;;;;;;;3.90;2.70;;;;;;;12.27;45.50;98970.59;5018247;28;20400;-77
2024/02/06 03:25:52;;;;;;;5.65;2.97;;;;;;;12.26;45.68;98964.53;5051236;28;20037;-79
2024/02/06 03:28:17;;;;;;;3.92;2.80;;;;;;;12.26;45.51;98975.00;5034993;28;20056;-79
2024/02/06 03:30:46;;;;;;;4.80;2.80;;;;;;;12.24;45.59;98962.97;5018523;28;20403;-77
2024/02/06 03:33:11;;;;;;;4.03;2.60;;;;;;;12.28;45.78;98970.47;5018479;28;20033;-77
2024/02/06 03:35:37;;;;;;;4.07;2.50;;;;;;;12.25;45.77;98964.66;5051064;28;20052;-78
2024/02/06 03:38:03;;;;;;;5.43;2.58;;;;;;;12.28;45.34;98973.06;5033989;28;20032;-78
2024/02/06 03:40:29;;;;;;;5.60;3.10;;;;;;;12.29;45.72;98971.31;5051071;28;20029;-78
2024/02/06 03:42:54;;;;;;;5.30;2.80;;;;;;;12.31;45.67;98972.00;5017496;28;20057;-77
2024/02/06 03:45:20;;;;;;;4.97;2.80;;;;;;;12.26;45.35;98967.16;5050131;28;20412;-77
2024/02/06 03:47:45;;;;;;;5.07;2.72;;;;;;;12.32;45.26;98981.53;5017489;28;20045;-78
2024/02/06 03:50:11;;;;;;;6.55;3.03;;;;;;;12.31;45.39;98982.50;5051035;28;20068;-79
2024/02/06 03:52:36;;;;;;;5.35;3.20;;;;;;;12.30;45.28;98976.44;5017430;28;20087;-79
2024/02/06 03:55:02;;;;;;;4.00;2.55;;;;;;;12.32;45.38;98986.78;5033929;28;20040;-78
2024/02/06 03:57:28;;;;;;;5.13;2.88;;;;;;;12.33;45.29;98985.81;5033824;28;20064;-78
2024/02/06 03:59:53;;;;;;;4.82;2.92;;;;;;;12.34;45.18;98990.09;5018501;28;20052;-78
2024/02/06 04:02:21;;;;;;;4.60;3.03;;;;;;;12.30;45.31;98975.56;5050903;28;20072;-78
2024/02/06 04:04:49;;;;;;;3.53;2.70;;;;;;;12.34;45.35;98986.66;5034444;28;20021;-77
2024/02/06 04:07:15;;;;;;;5.70;2.90;;;;;;;12.33;45.07;98996.28;5050808;28;20112;-78
2024/02/06 04:09:40;;;;;;;3.60;2.60;;;;;;;12.35;45.04;98996.16;5018285;28;20029;-78
2024/02/06 04:12:06;;;;;;;4.07;2.70;;;;;;;12.31;45.27;98987.72;5034286;28;20072;-78
2024/02/06 04:14:32;;;;;;;4.95;3.00;;;;;;;12.30;45.19;98986.91;5017883;28;20116;-79
2024/02/06 04:16:58;;;;;;;4.47;2.75;;;;;;;12.34;45.13;99000.56;5032102;28;20040;-79
2024/02/06 04:19:24;;;;;;;4.43;2.95;;;;;;;12.31;45.23;99011.28;5048350;28;20037;-78
2024/02/06 04:21:49;;;;;;;5.75;3.08;;;;;;;12.36;45.05;99014.34;5015326;28;20127;-80
2024/02/06 04:24:15;;;;;;;5.13;2.85;;;;;;;12.30;45.32;99012.22;5031901;28;20408;-77
2024/02/06 04:26:41;;;;;;;4.95;2.83;;;;;;;12.37;45.28;99015.22;5037337;28;20094;-79
2024/02/06 04:29:06;;;;;;;5.78;3.10;;;;;;;12.37;45.26;99009.97;5037980;28;20052;-79
2024/02/06 04:31:32;;;;;;;4.47;2.72;;;;;;;12.33;45.29;99008.53;5053766;28;20385;-79
2024/02/06 04:33:57;;;;;;;4.40;2.83;;;;;;;12.36;45.15;99016.16;5054198;28;20025;-79
2024/02/06 04:36:23;;;;;;;5.68;2.70;;;;;;;12.33;45.14;99009.38;5037666;28;20555;-79
2024/02/06 04:38:49;;;;;;;4.10;2.85;;;;;;;12.33;45.02;99013.78;5054153;28;20369;-80
2024/02/06 04:41:15;;;;;;;6.75;2.90;;;;;;;12.31;45.25;99021.75;5037596;28;20033;-78
2024/02/06 04:43:41;;;;;;;6.32;2.97;;;;;;;12.33;45.01;99014.59;5037195;28;20527;-80
2024/02/06 04:46:07;;;;;;;3.28;2.50;;;;;;;12.33;45.15;99016.41;5054251;28;20029;-80
2024/02/06 04:48:33;;;;;;;5.25;3.28;;;;;;;12.34;45.11;99018.06;5021367;28;20561;-82
2024/02/06 04:50:59;;;;;;;4.53;2.75;;;;;;;12.32;45.14;99007.72;5020928;28;20041;-81
2024/02/06 04:53:25;;;;;;;4.57;2.75;;;;;;;12.31;45.16;99013.91;5038110;28;20037;-81
2024/02/06 04:55:51;;;;;;;5.22;2.67;;;;;;;12.26;45.09;99000.34;5037336;28;20178;-79
2024/02/06 04:58:17;;;;;;;5.82;3.15;;;;;;;12.29;44.96;99007.97;5037495;28;20037;-81
2024/02/06 05:00:42;;;;;;;10.35;2.15;;;;;;;12.39;54.18;99016.72;5022149;28;20119;-78
2024/02/06 05:03:08;;;;;;;9.38;2.58;;;;;;;12.36;50.43;99009.13;5054899;28;20032;-80
2024/02/06 05:05:33;;;;;;;3.63;2.20;;;;;;;12.38;50.14;99012.47;5020586;28;20091;-80
2024/02/06 05:07:59;;;;;;;7.07;2.05;;;;;;;12.44;53.21;99011.13;5020538;28;20041;-78
2024/02/06 05:10:24;;;;;;;6.25;2.30;;;;;;;12.47;52.16;99018.75;5020235;28;20059;-79
2024/02/06 05:12:50;;;;;;;8.23;2.40;;;;;;;12.45;51.60;99008.41;5020857;28;20040;-79
2024/02/06 05:15:16;;;;;;;12.38;4.05;;;;;;;12.58;60.01;99015.28;5039517;28;20070;-78
2024/02/06 05:17:41;;;;;;;16.80;4.93;;;;;;;12.64;55.16;99015.59;5053881;28;20033;-75
2024/02/06 05:20:09;;;;;;;19.30;5.47;;;;;;;12.69;53.84;99030.97;5020484;28;20131;-77
2024/02/06 05:22:37;;;;;;;10.15;5.25;;;;;;;12.65;53.46;99019.06;5036094;28;20029;-78
2024/02/06 05:25:05;;;;;;;16.27;5.25;;;;;;;12.63;53.00;99021.81;5020622;28;20483;-79
2024/02/06 05:27:31;;;;;;;10.88;5.28;;;;;;;12.68;52.67;99029.28;5036419;28;20029;-77
2024/02/06 05:29:57;;;;;;;13.50;5.43;;;;;;;12.68;52.19;99029.28;5036014;28;20036;-81
2024/02/06 05:32:23;;;;;;;13.95;4.75;;;;;;;12.71;51.63;99036.06;5035878;28;20056;-78
2024/02/06 05:34:53;;;;;;;12.80;4.80;;;;;;;12.72;51.17;99022.03;5035783;28;20443;-78
2024/02/06 05:37:19;;;;;;;13.82;6.15;;;;;;;12.79;51.20;99023.19;5035728;28;20032;-79
2024/02/06 05:39:44;;;;;;;13.35;4.57;;;;;;;12.83;50.83;99022.00;5035152;28;20098;-79
2024/02/06 05:42:10;;;;;;;8.38;4.43;;;;;;;12.93;50.54;99027.31;5020011;28;20067;-78
2024/02/06 05:44:35;;;;;;;11.25;4.60;;;;;;;12.95;49.81;99014.91;5054151;28;20476;-73
2024/02/06 05:47:01;;;;;;;10.35;4.53;;;;;;;13.05;49.65;99017.63;5036067;28;20129;-74
2024/02/06 05:49:26;;;;;;;10.43;4.72;;;;;;;13.13;49.35;99008.16;5036317;28;20048;-75
2024/02/06 05:51:52;;;;;;;11.35;4.28;;;;;;;13.23;48.96;99010.03;5035636;28;20424;-74
2024/02/06 05:54:17;;;;;;;11.27;4.63;;;;;;;13.35;48.52;99011.66;5052540;28;20021;-74
2024/02/06 05:56:43;;;;;;;10.85;4.70;;;;;;;13.44;48.04;99000.41;5052726;28;20029;-73
2024/02/06 05:59:08;;;;;;;10.23;4.25;;;;;;;13.62;47.41;99002.44;5036221;28;20033;-75
2024/02/06 06:01:34;;;;;;;8.60;4.28;;;;;;;13.86;47.05;99016.06;5036022;28;20481;-74
2024/02/06 06:03:59;;;;;;;9.05;4.30;;;;;;;14.05;46.28;99017.94;5054027;28;20036;-74
2024/02/06 06:06:25;;;;;;;10.05;4.38;;;;;;;14.20;46.01;99013.19;5053132;28;20480;-76
2024/02/06 06:08:50;;;;;;;11.50;4.55;;;;;;;14.33;45.50;99012.94;5019737;28;20047;-79
2024/02/06 06:11:17;;;;;;;8.82;3.80;;;;;;;14.55;45.37;99011.03;5052146;28;20051;-78
2024/02/06 06:13:43;;;;;;;9.65;4.10;;;;;;;14.71;45.10;99015.81;5019727;28;20029;-78
2024/02/06 06:16:08;;;;;;;10.95;3.85;;;;;;;14.98;44.61;99015.13;5019454;28;20081;-77
2024/02/06 06:18:34;;;;;;;11.15;4.10;;;;;;;15.27;43.83;99001.94;5052264;28;20032;-78
2024/02/06 06:20:59;;;;;;;5.82;2.58;;;;;;;16.02;49.24;99002.06;5035807;28;20076;-79
2024/02/06 06:23:25;;;;;;;6.40;2.88;;;;;;;16.64;46.45;99012.78;5035600;28;20036;-79
2024/02/06 06:25:50;;;;;;;19.45;2.80;;;;;;;17.13;44.65;99001.91;5018906;28;20123;-78
2024/02/06 06:28:16;;;;;;;5.80;2.42;;;;;;;17.69;43.64;99012.19;5035305;28;20029;-79
2024/02/06 06:30:41;;;;;;;6.35;2.60;;;;;;;18.39;42.24;99012.03;5035999;28;20412;-79
2024/02/06 06:33:10;;;;;;;6.70;2.60;;;;;;;19.10;40.72;99006.38;5016433;28;20048;-77
2024/02/06 06:35:36;;;;;;;6.85;2.58;;;;;;;19.80;39.06;99010.31;5040404;28;20098;-77
2024/02/06 06:38:02;;;;;;;7.22;2.28;;;;;;;20.67;37.45;99001.47;5010320;28;20544;-79
2024/02/06 06:40:27;;;;;;;10.45;2.63;;;;;;;21.70;36.25;99010.78;5019747;28;20466;-80
2024/02/06 06:42:53;;;;;;;7.18;2.22;;;;;;;22.71;35.02;99007.56;5001739;28;20045;-80
2024/02/06 06:45:19;;;;;;;8.25;2.55;;;;;;;23.68;33.56;99011.44;5019992;28;20030;-78
2024/02/06 06:47:44;;;;;;;4.03;1.98;;;;;;;24.54;31.90;99008.41;4998303;28;20052;-77
2024/02/06 06:50:10;;;;;;;4.22;2.08;;;;;;;25.31;30.72;99008.13;5016235;28;20034;-79
2024/02/06 06:52:40;;;;;;;4.53;2.08;;;;;;;26.36;29.58;99020.66;5015758;28;20473;-75
2024/02/06 06:55:06;;;;;;;7.35;2.20;;;;;;;27.43;28.71;99014.66;5015346;28;20563;-76
2024/02/06 06:57:31;;;;;;;4.63;1.75;;;;;;;28.15;28.25;99009.59;5023221;28;20029;-74
2024/02/06 06:59:57;;;;;;;13.65;2.13;;;;;;;28.74;27.07;99019.78;5022944;28;20025;-75
2024/02/06 07:02:23;;;;;;;5.38;2.20;;;;;;;29.08;26.20;99013.91;5050793;28;20401;-74
2024/02/06 07:04:49;;;;;;;7.35;2.20;;;;;;;29.38;25.88;99021.91;5044113;28;20041;-73
2024/02/06 07:07:14;;;;;;;8.75;2.35;;;;;;;29.49;25.54;99021.09;5040519;28;20029;-74
2024/02/06 07:09:40;;;;;;;7.07;2.10;;;;;;;29.65;25.50;99016.91;5039939;28;20029;-75
2024/02/06 07:12:06;;;;;;;8.10;2.10;;;;;;;30.00;25.38;99012.53;5041633;28;20032;-74
2024/02/06 07:14:34;;;;;;;4.43;2.00;;;;;;;30.34;24.75;99015.38;5043469;28;20036;-74
2024/02/06 07:16:59;;;;;;;6.20;1.92;;;;;;;30.82;24.19;99014.13;5038594;28;20075;-72
2024/02/06 07:19:25;;;;;;;5.50;2.33;;;;;;;31.45;23.24;99016.78;5031131;28;20042;-73
2024/02/06 07:21:57;;;;;;;6.15;2.08;;;;;;;32.12;22.26;99010.47;5031610;28;20037;-74
2024/02/06 07:24:24;;;;;;;5.50;2.03;;;;;;;32.72;21.65;99007.88;5014734;28;20035;-75
2024/02/06 07:26:50;;;;;;;;;;;;;;;32.88;21.43;99009.66;5014920;28;20120;-73
2024/02/06 07:29:15;;;;;;;4.50;2.00;;;;;;;33.37;21.01;99008.72;5030922;28;19909;-74
2024/02/06 07:31:41;;;;;;;5.47;2.38;;;;;;;34.03;20.00;99002.03;5036894;28;20029;-74
2024/02/06 07:34:06;;;;;;;4.07;1.80;;;;;;;34.44;19.90;99002.19;5050615;28;20461;-73
2024/02/06 07:36:31;;;;;;;4.40;1.90;;;;;;;34.41;20.14;98991.88;5034340;28;20028;-75
2024/02/06 07:38:57;;;;;;;5.00;1.88;;;;;;;34.05;20.57;98994.47;5033873;28;20078;-78
2024/02/06 07:41:22;;;;;;;6.50;2.13;;;;;;;33.50;20.87;98983.09;5030692;28;20413;-75
2024/02/06 07:43:48;;;;;;;4.38;1.90;;;;;;;33.30;21.03;98973.75;5031944;28;20447;-74
2024/02/06 07:46:14;;;;;;;3.05;1.63;;;;;;;33.14;21.39;98972.81;5022319;28;20071;-72
2024/02/06 07:48:39;;;;;;;5.28;1.80;;;;;;;33.09;21.87;98961.16;5041712;28;20044;-73
2024/02/06 07:51:04;;;;;;;4.22;1.83;;;;;;;33.22;21.48;98963.44;5023557;28;20041;-74
2024/02/06 07:53:30;;;;;;;4.70;2.20;;;;;;;33.25;21.72;98951.28;5047565;28;20438;-80
2024/02/06 07:55:56;;;;;;;4.00;1.70;;;;;;;32.47;21.95;98956.00;5018693;28;20120;-83
2024/02/06 07:58:22;;;;;;;4.88;1.73;;;;;;;31.80;19.66;98945.53;5034959;28;20040;-81
2024/02/06 08:00:47;;;;;;;5.15;1.40;;;;;;;30.99;15.93;98933.31;5055977;28;20021;-83
2024/02/06 08:03:13;;;;;;;4.95;1.55;;;;;;;30.58;15.59;98943.41;5023313;28;20067;-80
2024/02/06 08:05:38;;;;;;;8.38;1.90;;;;;;;30.26;17.49;98935.81;5056352;28;20041;-85
2024/02/06 08:08:04;;;;;;;5.57;1.80;;;;;;;30.09;19.46;98943.81;5039294;28;20029;-79
2024/02/06 08:10:30;;;;;;;7.60;1.67;;;;;;;30.01;19.57;98949.59;5022916;28;20029;-80
2024/02/06 08:12:56;;;;;;;7.47;1.52;;;;;;;29.95;17.27;98944.13;5054745;28;20037;-79
2024/02/06 08:15:22;;;;;;;5.68;1.45;;;;;;;29.85;17.38;98951.97;5018587;28;20068;-78
2024/02/06 08:17:48;;;;;;;5.43;1.30;;;;;;;29.78;14.86;98953.97;5035136;28;20036;-80
2024/02/06 08:20:16;;;;;;;4.78;1.50;;;;;;;29.65;14.67;98951.50;5035705;28;20033;-84
2024/02/06 08:22:42;;;;;;;10.07;1.58;;;;;;;29.92;13.26;98952.66;5004268;28;20465;-83
2024/02/06 08:25:09;;;;;;;6.88;1.38;;;;;;;29.69;12.09;98945.44;5019356;28;20034;-81
2024/02/06 08:27:35;;;;;;;7.70;1.77;;;;;;;29.65;12.19;98957.72;5004577;28;20038;-82
2024/02/06 08:30:01;;;;;;;12.32;1.70;;;;;;;29.77;13.46;98955.00;5003808;28;20038;-83
2024/02/06 08:32:26;;;;;;;5.88;2.00;;;;;;;29.76;12.88;98961.44;5019658;28;20025;-80
2024/02/06 08:34:52;;;;;;;6.10;1.90;;;;;;;29.51;13.50;98964.38;5052250;28;20500;-84
2024/02/06 08:37:17;;;;;;;7.05;1.88;;;;;;;29.42;13.34;98972.00;5008240;28;20485;-79
2024/02/06 08:39:43;;;;;;;7.85;1.88;;;;;;;29.48;13.42;98970.28;5035002;28;20033;-78
2024/02/06 08:42:09;;;;;;;7.68;1.60;;;;;;;29.58;12.92;98971.28;5001752;28;20132;-78
2024/02/06 08:44:35;;;;;;;7.10;2.08;;;;;;;29.40;13.44;98977.63;5002209;28;20409;-77
2024/02/06 08:47:00;;;;;;;5.70;2.00;;;;;;;29.54;14.41;98970.13;5034547;28;20041;-78
2024/02/06 08:49:26;;;;;;;5.93;1.90;;;;;;;29.49;13.68;98977.25;5034731;28;20057;-81
2024/02/06 08:51:51;;;;;;;3.97;1.90;;;;;;;29.42;13.74;98978.19;5001778;28;20543;-78
2024/02/06 08:54:20;;;;;;;5.72;1.85;;;;;;;29.42;14.86;98966.63;5019522;28;20091;-75
2024/02/06 08:56:47;;;;;;;6.40;2.45;;;;;;;29.50;15.82;98982.41;5042013;28;20036;-76
2024/02/06 08:59:12;;;;;;;7.97;2.17;;;;;;;29.63;15.98;98972.47;5017408;28;20435;-75
2024/02/06 09:01:38;;;;;;;9.40;1.95;;;;;;;29.62;13.78;98970.81;5054994;28;20032;-74
2024/02/06 09:04:05;;;;;;;10.07;2.05;;;;;;;29.88;14.12;98970.34;5037323;28;20122;-75
2024/02/06 09:06:30;;;;;;;5.70;1.90;;;;;;;30.07;15.60;98970.97;5054206;28;20037;-77
2024/02/06 09:08:58;;;;;;;7.00;2.03;;;;;;;30.37;18.93;98975.31;5014316;28;20037;-76
2024/02/06 09:11:24;;;;;;;10.70;1.95;;;;;;;30.55;17.04;98962.75;5034624;28;20074;-77
2024/02/06 09:13:50;;;;;;;10.57;1.35;;;;;;;30.59;15.08;98971.97;5017560;28;20040;-78
2024/02/06 09:16:16;;;;;;;9.02;1.85;;;;;;;31.13;15.78;98966.97;5018052;28;20463;-77
2024/02/06 09:18:41;;;;;;;9.70;1.38;;;;;;;31.55;14.63;98963.84;5000390;28;20080;-76
2024/02/06 09:21:07;;;;;;;7.32;1.58;;;;;;;31.74;14.48;98958.16;5017330;28;20091;-79
2024/02/06 09:23:32;;;;;;;9.52;1.80;;;;;;;31.71;16.73;98958.66;5000801;28;20491;-80
2024/02/06 09:25:58;;;;;;;13.05;1.50;;;;;;;31.95;17.73;98958.41;5038526;28;20033;-77
2024/02/06 09:28:23;;;;;;;8.05;1.40;;;;;;;32.60;15.27;98960.19;5040862;28;20107;-77
2024/02/06 09:30:49;;;;;;;8.98;1.30;;;;;;;33.28;11.51;98953.47;5037088;28;20104;-76
2024/02/06 09:33:14;;;;;;;10.25;1.40;;;;;;;34.60;11.06;98955.06;5050483;28;20404;-75
2024/02/06 09:35:40;;;;;;;5.93;1.50;;;;;;;35.90;11.79;98969.28;5002061;28;20049;-76
2024/02/06 09:38:05;;;;;;;5.32;1.20;;;;;;;37.19;11.32;98961.88;5017395;28;20480;-75
2024/02/06 09:40:32;;;;;;;5.47;1.20;;;;;;;37.85;10.05;98958.78;5046291;28;20056;-75
2024/02/06 09:42:58;;;;;;;7.68;1.30;;;;;;;37.77;10.49;98965.69;5035961;28;20057;-76
2024/02/06 09:45:24;;;;;;;9.07;1.38;;;;;;;37.21;10.97;98967.91;5034673;28;20040;-76
2024/02/06 09:47:49;;;;;;;7.15;1.10;;;;;;;36.63;12.00;98968.63;5036144;28;20029;-77
2024/02/06 09:50:15;;;;;;;10.52;1.52;;;;;;;36.23;12.64;98967.78;5052456;28;20041;-76
2024/02/06 09:52:41;;;;;;;4.20;1.20;;;;;;;36.03;12.88;98955.09;5035156;28;20025;-79
2024/02/06 09:55:11;;;;;;;5.95;1.42;;;;;;;36.00;13.25;98956.47;5014567;28;20084;-78
2024/02/06 09:57:37;;;;;;;5.95;1.33;;;;;;;36.17;12.98;98949.88;5026307;28;20025;-79
2024/02/06 10:00:04;;;;;;;4.43;1.40;;;;;;;36.35;12.72;98943.78;5016295;28;20179;-78
2024/02/06 10:02:29;;;;;;;8.30;1.63;;;;;;;36.49;12.96;98943.97;5015255;28;20022;-78
2024/02/06 10:04:55;;;;;;;7.53;1.63;;;;;;;36.47;13.10;98939.91;5014757;28;20044;-77
2024/02/06 10:07:21;;;;;;;5.00;1.13;;;;;;;36.31;13.54;98931.03;5014559;28;20087;-77
2024/02/06 10:09:47;;;;;;;5.00;1.60;;;;;;;36.31;13.35;98940.03;4998681;28;20041;-78
2024/02/06 10:12:15;;;;;;;2.78;1.38;;;;;;;36.20;13.58;98936.53;5031828;28;20037;-77
2024/02/06 10:14:41;;;;;;;4.07;1.25;;;;;;;36.18;13.87;98922.44;5031344;28;20472;-80
2024/02/06 10:17:09;;;;;;;3.47;1.02;;;;;;;36.13;14.01;98930.59;5015992;28;20064;-77
2024/02/06 10:19:35;;;;;;;4.75;1.40;;;;;;;36.01;14.29;98927.44;5032693;28;20546;-77
2024/02/06 10:22:01;;;;;;;8.65;1.42;;;;;;;35.97;14.51;98919.00;5015778;28;20037;-77
2024/02/06 10:24:29;;;;;;;4.00;1.20;;;;;;;35.83;14.51;98916.06;5015579;28;20029;-77
2024/02/06 10:27:00;;;;;;;;;;;;;;;35.74;14.81;98930.50;5000581;28;20034;-77
2024/02/06 10:29:27;;;;;;;5.05;1.25;;;;;;;35.60;15.17;98917.53;5015777;28;19913;-79
2024/02/06 10:31:58;;;;;;;4.45;1.38;;;;;;;35.44;15.35;98921.38;5016669;28;20208;-78
2024/02/06 10:34:24;;;;;;;3.70;1.45;;;;;;;35.28;15.45;98917.91;5016767;28;20030;-75
2024/02/06 10:36:55;;;;;;;4.25;1.30;;;;;;;35.09;15.83;98918.47;5015965;28;20091;-79
2024/02/06 10:39:21;;;;;;;5.35;1.90;;;;;;;34.95;15.89;98903.84;5016151;28;20485;-77
2024/02/06 10:41:46;;;;;;;4.85;1.23;;;;;;;34.78;16.13;98915.78;5031921;28;20107;-78
2024/02/06 10:44:12;;;;;;;7.03;1.52;;;;;;;34.62;16.45;98911.44;5015609;28;20042;-78
2024/02/06 10:46:39;;;;;;;4.05;1.25;;;;;;;34.42;16.46;98912.22;5015522;28;20083;-79
2024/02/06 10:49:04;;;;;;;4.88;1.38;;;;;;;34.27;16.70;98898.66;5015917;28;20045;-79
2024/02/06 10:51:30;;;;;;;5.13;1.33;;;;;;;34.15;17.16;98901.59;5031970;28;20401;-78
2024/02/06 10:53:57;;;;;;;4.72;1.10;;;;;;;33.96;16.92;98898.59;5033265;28;20037;-79
2024/02/06 10:56:22;;;;;;;3.35;1.10;;;;;;;33.85;17.25;98893.13;5015598;28;20061;-76
2024/02/06 10:58:57;;;;;;;5.28;1.23;;;;;;;33.67;17.54;98889.00;5032159;28;20134;-76
2024/02/06 11:01:36;;;;;;;6.90;1.33;;;;;;;33.55;17.76;98882.97;5015710;28;20448;-77
2024/02/06 11:04:04;;;;;;;3.20;0.98;;;;;;;33.44;18.01;98881.31;5016695;28;20482;-77
2024/02/06 11:06:44;;;;;;;5.65;1.30;;;;;;;33.33;17.97;98866.94;5014789;28;20377;-78
2024/02/06 11:09:11;;;;;;;5.03;1.08;;;;;;;33.25;17.90;98867.44;5017005;28;20033;-78
2024/02/06 11:11:36;;;;;;;2.38;0.77;;;;;;;33.16;18.08;98869.78;5015262;28;20034;-78
2024/02/06 11:14:02;;;;;;;3.53;1.00;;;;;;;33.01;18.21;98854.28;5014855;28;20504;-79
2024/02/06 11:16:29;;;;;;;2.45;0.80;;;;;;;32.86;18.48;98844.19;5014887;28;20031;-78
2024/02/06 11:19:13;;;;;;;4.18;1.42;;;;;;;32.70;18.36;98845.97;5014822;28;20413;-78
2024/02/06 11:21:41;;;;;;;4.93;1.20;;;;;;;32.59;18.46;98838.84;5031254;28;20404;-77
2024/02/06 11:24:07;;;;;;;4.40;1.00;;;;;;;32.46;18.84;98842.81;5014845;28;20232;-78
2024/02/06 11:26:33;;;;;;;4.93;1.10;;;;;;;32.30;19.02;98831.06;5014816;28;20044;-76
2024/02/06 11:29:06;;;;;;;5.38;1.10;;;;;;;32.16;19.10;98829.84;5014758;28;20037;-77